Архив погоды в Стерлитамаке

Метеограмма Стерлитамак
Среда, 15 Августа
Время местн. Темп Ветер Видим Явления Облачность нижн/средн/верх Атм. давл. Влжн Точка росы ВНГО R Сост. почвы Tg s
Напр Скр Прв ур.ст ур.м изм
05:00 +12° С-З 1 - 10 км - ясно 748 761 +1 85% +9.6° более 2.5 км - - - -
02:00 +15.1° С 3 - 10 км - переменная облачность 747 759 +0.9 74% +10.6° - - - - -
Вторник, 14 Августа
Время местн. Темп Ветер Видим Явления Облачность нижн/средн/верх Атм. давл. Влжн Точка росы ВНГО R Сост. почвы Tg s
Напр Скр Прв ур.ст ур.м изм
23:00 +17.4° С 1 - 10 км небо без изменений {гроза, ливневые осадки} переменная облачность 746 758 +0.9 86% +15° 1 км - - - -
20:00 +18.5° С,С-З 2 - 10 км слабый ливневый дождь {гроза} облачно 745 757 +1 82% +15.3° 1 км 2 - - -
17:00 +26.5° Ю,Ю-З 2 - 20 км небо без изменений {гроза} переменная облачность 744 756 -1.2 40% +11.7° 1.5 км - - - -
14:00 +25.6° Ю,Ю-З 2 - 10 км - преимущественно облачно 746 757 -0.7 45% +12.8° 1 км - - - -
11:00 +21.4° Ю 2 - 10 км небо без изменений {ливневые осадки} преимущественно облачно 746 758 -0.5 70% +15.8° 1 км - - - -
08:00 +18.4° Ю,Ю-В 1 - 10 км небо без изменений {ливневые осадки} облачно 747 759 +0.2 83% +15.5° 1 км 0.3 Влажная (без луж) - -
05:00 +18.4° З 1 - 10 км слабый ливневый дождь облачно 747 759 +0.2 82% +15.2° 1 км - - - -
02:00 +20.5° Ю,Ю-З 1 - 10 км - облачно 747 758 +0.2 68% +14.3° - - - - -
Понедельник, 13 Августа
Время местн. Темп Ветер Видим Явления Облачность нижн/средн/верх Атм. давл. Влжн Точка росы ВНГО R Сост. почвы Tg s
Напр Скр Прв ур.ст ур.м изм
23:00 +20.8° Ю 1 - 10 км - переменная облачность 746 758 +0.6 65% +13.9° более 2.5 км - - - -
20:00 +26.9° Ю 1 - 20 км - преимущественно облачно 746 757 -0.8 44% +13.5° 1.5 км 0 - - -
17:00 +29.5° З 1 - 20 км - облачно с прояснениями 746 758 -0.8 30% +10.1° 1.5 км - - - -
14:00 +30.7° З,С-З 3 - 20 км - переменная облачность 747 758 -0.6 23% +7.3° 1.5 км - - - -
11:00 +27.1° Ю,Ю-З 1 - 20 км - ясно 747 759 -0.5 49% +15.5° более 2.5 км - - - -
08:00 +18.3° Ю 1 - 20 км - переменная облачность 748 760 +0.2 80% +14.7° - 0 Сухая (без трещин) - -
05:00 +15.8° штиль 0 - 10 км - переменная облачность 748 760 -0.4 90% +14.1° - - - - -
02:00 +17.1° штиль 0 - 10 км - ясно 748 760 +0.1 89% +15.3° более 2.5 км - - - -
Воскресенье, 12 Августа
Время местн. Темп Ветер Видим Явления Облачность нижн/средн/верх Атм. давл. Влжн Точка росы ВНГО R Сост. почвы Tg s
Напр Скр Прв ур.ст ур.м изм
23:00 +20° штиль 0 - 10 км - незначительная облачность 748 760 +0.2 79% +16.3° - - - - -
20:00 +27° З 1 - 20 км - переменная облачность 748 760 -0.6 46% +14.4° - 0 - - -
17:00 +30.6° З,С-З 2 - 20 км - переменная облачность 749 760 -0.7 29% +10.8° 1.5 км - - - -
14:00 +29.2° С-З 2 - 20 км - облачно с прояснениями 749 761 -0.4 37% +13° 1.5 км - - - -
11:00 +26.3° В,Ю-В 1 - 20 км - незначительная облачность 750 761 -0.3 57% +17.1° - - - - -
08:00 +16.6° Ю,Ю-З 1 - 20 км - ясно 750 762 +0.6 82% +13.5° более 2.5 км 0 Сухая (без трещин) - -
05:00 +14.3° Ю 1 - 10 км - ясно 749 762 +0.3 86% +12° более 2.5 км - - - -
02:00 +16.7° Ю 1 - 10 км - ясно 749 761 +0.2 75% +12.3° более 2.5 км - - - -